首页
METAR-TAF:

METAR-TAF

机场 :

克拉克国际机场

安吉利斯, 菲律宾

纬度: 15-11N, 经度: 120-33E, 海拔: 148米

当前天气观测

该预报发布于20分钟前的05:00 UTC
风速6节,风向南转南东
温度 32°C
湿度 63%
气压 1008 hPa
能见度10公里或以上
散云层高于2000英尺
多云层高于10000英尺

METAR: RPLC 150500Z 16006KT 9999 SCT020 BKN100 32/24 Q1008 RMK A2977

时间: 13:20 (05:20 UTC)

预报

该预报发布于6小时和20分钟前的23:00 UTC
预报有效从15日的 00点(UTC)到 16日的 06点(UTC)
风速6节,风向
能见度10公里或以上
散云层高于2000英尺
短暂存在
从 15日的 00点(UTC)到 15日的 06点(UTC)
风速10节,风向
散云层高于2000英尺
多云层高于10000英尺

TAF: RPLC 142300Z 1500/1606 18006KT 9999 SCT020 TX33/1506Z TN25/1521Z TEMPO 1500/1506 09010KT SCT020 BKN100

超过4000个机场的气象观测和天气预报(METAR&TAF报告)。

可查询的气象台以黄色和红色小点在地图上表示。

将鼠标移到小点上方,可查看气象台名称。

然后点击查看天气观测和预报。

如需切换地图:点击带黑十字的绿色按钮放大地图;点击带横线的绿色按钮缩小地图;或者点击绿色箭头查看邻近地区的地图。


METAR-TAF: